sensor_id;sensor_type;location;lat;lon;timestamp;pressure;altitude;pressure_sealevel;temperature;humidity
49473;BME280;73594;50.944;6.950;2023-11-19T00:01:51;100621.25;;;9.94;100.00
49473;BME280;73594;50.944;6.950;2023-11-19T00:04:16;100610.19;;;9.96;100.00
49473;BME280;73594;50.944;6.950;2023-11-19T00:06:42;100609.69;;;9.99;100.00
49473;BME280;73594;50.944;6.950;2023-11-19T00:09:07;100607.78;;;9.99;100.00
49473;BME280;73594;50.944;6.950;2023-11-19T00:11:33;100598.63;;;10.00;100.00
49473;BME280;73594;50.944;6.950;2023-11-19T00:13:58;100590.25;;;10.02;100.00
49473;BME280;73594;50.944;6.950;2023-11-19T00:16:23;100578.66;;;10.01;100.00
49473;BME280;73594;50.944;6.950;2023-11-19T00:18:49;100572.97;;;10.03;100.00
49473;BME280;73594;50.944;6.950;2023-11-19T00:21:15;100571.69;;;10.06;100.00
49473;BME280;73594;50.944;6.950;2023-11-19T00:23:40;100565.47;;;10.05;100.00
49473;BME280;73594;50.944;6.950;2023-11-19T00:26:05;100570.34;;;10.08;100.00
49473;BME280;73594;50.944;6.950;2023-11-19T00:28:32;100564.44;;;10.11;100.00
49473;BME280;73594;50.944;6.950;2023-11-19T00:30:58;100551.75;;;10.12;100.00
49473;BME280;73594;50.944;6.950;2023-11-19T00:33:24;100549.59;;;10.14;100.00
49473;BME280;73594;50.944;6.950;2023-11-19T00:35:49;100545.81;;;10.15;100.00
49473;BME280;73594;50.944;6.950;2023-11-19T00:38:15;100551.22;;;10.15;100.00
49473;BME280;73594;50.944;6.950;2023-11-19T00:40:41;100548.78;;;10.13;100.00
49473;BME280;73594;50.944;6.950;2023-11-19T00:43:06;100558.25;;;10.16;100.00
49473;BME280;73594;50.944;6.950;2023-11-19T00:45:32;100552.59;;;10.17;100.00
49473;BME280;73594;50.944;6.950;2023-11-19T00:47:58;100550.44;;;10.19;100.00
49473;BME280;73594;50.944;6.950;2023-11-19T00:50:25;100555.03;;;10.19;100.00
49473;BME280;73594;50.944;6.950;2023-11-19T00:52:50;100549.06;;;10.17;100.00
49473;BME280;73594;50.944;6.950;2023-11-19T00:55:16;100563.41;;;10.17;100.00
49473;BME280;73594;50.944;6.950;2023-11-19T00:57:42;100573.13;;;10.18;100.00
49473;BME280;73594;50.944;6.950;2023-11-19T01:00:08;100569.13;;;10.21;100.00
49473;BME280;73594;50.944;6.950;2023-11-19T01:02:43;100560.75;;;10.22;100.00
49473;BME280;73594;50.944;6.950;2023-11-19T01:05:09;100556.44;;;10.21;100.00
49473;BME280;73594;50.944;6.950;2023-11-19T01:07:35;100543.16;;;10.20;100.00
49473;BME280;73594;50.944;6.950;2023-11-19T01:10:00;100552.41;;;10.24;100.00
49473;BME280;73594;50.944;6.950;2023-11-19T01:12:26;100554.28;;;10.23;100.00
49473;BME280;73594;50.944;6.950;2023-11-19T01:14:51;100541.84;;;10.22;100.00
49473;BME280;73594;50.944;6.950;2023-11-19T01:17:16;100548.06;;;10.23;100.00
49473;BME280;73594;50.944;6.950;2023-11-19T01:19:42;100555.09;;;10.24;100.00
49473;BME280;73594;50.944;6.950;2023-11-19T01:22:07;100558.63;;;10.24;100.00
49473;BME280;73594;50.944;6.950;2023-11-19T01:24:32;100563.75;;;10.26;100.00
49473;BME280;73594;50.944;6.950;2023-11-19T01:26:58;100563.75;;;10.26;100.00
49473;BME280;73594;50.944;6.950;2023-11-19T01:29:25;100555.41;;;10.27;100.00
49473;BME280;73594;50.944;6.950;2023-11-19T01:31:51;100552.47;;;10.34;100.00
49473;BME280;73594;50.944;6.950;2023-11-19T01:34:18;100553.09;;;10.41;100.00
49473;BME280;73594;50.944;6.950;2023-11-19T01:36:43;100544.47;;;10.49;100.00
49473;BME280;73594;50.944;6.950;2023-11-19T01:39:08;100555.59;;;10.58;100.00
49473;BME280;73594;50.944;6.950;2023-11-19T01:41:35;100559.44;;;10.67;100.00
49473;BME280;73594;50.944;6.950;2023-11-19T01:44:01;100560.28;;;10.73;100.00
49473;BME280;73594;50.944;6.950;2023-11-19T01:46:26;100548.94;;;10.76;100.00
49473;BME280;73594;50.944;6.950;2023-11-19T01:48:52;100551.16;;;10.79;100.00
49473;BME280;73594;50.944;6.950;2023-11-19T01:51:19;100543.59;;;10.86;100.00
49473;BME280;73594;50.944;6.950;2023-11-19T01:53:45;100543.09;;;10.94;100.00
49473;BME280;73594;50.944;6.950;2023-11-19T01:56:12;100546.66;;;11.05;100.00
49473;BME280;73594;50.944;6.950;2023-11-19T01:58:39;100539.97;;;11.17;100.00
49473;BME280;73594;50.944;6.950;2023-11-19T02:01:06;100542.16;;;11.25;100.00
49473;BME280;73594;50.944;6.950;2023-11-19T02:03:32;100547.56;;;11.36;100.00
49473;BME280;73594;50.944;6.950;2023-11-19T02:05:59;100546.50;;;11.47;100.00
49473;BME280;73594;50.944;6.950;2023-11-19T02:08:26;100540.59;;;11.60;100.00
49473;BME280;73594;50.944;6.950;2023-11-19T02:10:52;100532.22;;;11.72;100.00
49473;BME280;73594;50.944;6.950;2023-11-19T02:13:18;100533.84;;;11.73;100.00
49473;BME280;73594;50.944;6.950;2023-11-19T02:15:44;100526.03;;;11.81;100.00
49473;BME280;73594;50.944;6.950;2023-11-19T02:18:19;100522.50;;;11.86;100.00
49473;BME280;73594;50.944;6.950;2023-11-19T02:20:45;100507.38;;;11.90;100.00
49473;BME280;73594;50.944;6.950;2023-11-19T02:23:12;100505.97;;;11.87;100.00
49473;BME280;73594;50.944;6.950;2023-11-19T02:25:39;100507.88;;;11.87;100.00
49473;BME280;73594;50.944;6.950;2023-11-19T02:28:06;100492.97;;;11.84;100.00
49473;BME280;73594;50.944;6.950;2023-11-19T02:30:32;100497.88;;;11.82;100.00
49473;BME280;73594;50.944;6.950;2023-11-19T02:32:58;100504.63;;;11.80;100.00
49473;BME280;73594;50.944;6.950;2023-11-19T02:35:27;100506.25;;;11.81;100.00
49473;BME280;73594;50.944;6.950;2023-11-19T02:37:53;100504.38;;;11.81;100.00
49473;BME280;73594;50.944;6.950;2023-11-19T02:40:19;100498.66;;;11.83;100.00
49473;BME280;73594;50.944;6.950;2023-11-19T02:42:44;100497.59;;;11.84;100.00
49473;BME280;73594;50.944;6.950;2023-11-19T02:45:10;100500.56;;;11.87;100.00
49473;BME280;73594;50.944;6.950;2023-11-19T02:47:42;100483.25;;;11.83;100.00
49473;BME280;73594;50.944;6.950;2023-11-19T02:50:11;100484.31;;;11.82;100.00
49473;BME280;73594;50.944;6.950;2023-11-19T02:52:41;100475.38;;;11.82;100.00
49473;BME280;73594;50.944;6.950;2023-11-19T02:55:07;100487.00;;;11.77;100.00
49473;BME280;73594;50.944;6.950;2023-11-19T02:57:35;100476.19;;;11.67;100.00
49473;BME280;73594;50.944;6.950;2023-11-19T03:00:00;100476.72;;;11.64;100.00
49473;BME280;73594;50.944;6.950;2023-11-19T03:02:26;100479.44;;;11.59;100.00
49473;BME280;73594;50.944;6.950;2023-11-19T03:04:59;100470.75;;;11.57;100.00
49473;BME280;73594;50.944;6.950;2023-11-19T03:07:25;100478.03;;;11.51;100.00
49473;BME280;73594;50.944;6.950;2023-11-19T03:09:50;100483.72;;;11.50;100.00
49473;BME280;73594;50.944;6.950;2023-11-19T03:12:16;100486.72;;;11.53;100.00
49473;BME280;73594;50.944;6.950;2023-11-19T03:14:41;100494.59;;;11.60;100.00
49473;BME280;73594;50.944;6.950;2023-11-19T03:17:07;100487.53;;;11.59;100.00
49473;BME280;73594;50.944;6.950;2023-11-19T03:19:34;100481.31;;;11.53;100.00
49473;BME280;73594;50.944;6.950;2023-11-19T03:22:01;100484.28;;;11.57;100.00
49473;BME280;73594;50.944;6.950;2023-11-19T03:24:27;100482.94;;;11.59;100.00
49473;BME280;73594;50.944;6.950;2023-11-19T03:26:53;100484.84;;;11.54;100.00
49473;BME280;73594;50.944;6.950;2023-11-19T03:29:19;100476.72;;;11.59;100.00
49473;BME280;73594;50.944;6.950;2023-11-19T03:31:44;100477.25;;;11.61;100.00
49473;BME280;73594;50.944;6.950;2023-11-19T03:34:10;100476.72;;;11.64;100.00
49473;BME280;73594;50.944;6.950;2023-11-19T03:36:37;100468.88;;;11.68;100.00
49473;BME280;73594;50.944;6.950;2023-11-19T03:39:02;100473.75;;;11.66;100.00
49473;BME280;73594;50.944;6.950;2023-11-19T03:41:28;100470.22;;;11.65;100.00
49473;BME280;73594;50.944;6.950;2023-11-19T03:43:53;100478.88;;;11.67;100.00
49473;BME280;73594;50.944;6.950;2023-11-19T03:46:20;100481.03;;;11.70;100.00
49473;BME280;73594;50.944;6.950;2023-11-19T03:48:49;100483.22;;;11.68;100.00
49473;BME280;73594;50.944;6.950;2023-11-19T03:51:15;100487.00;;;11.67;100.00
49473;BME280;73594;50.944;6.950;2023-11-19T03:53:47;100483.75;;;11.70;100.00
49473;BME280;73594;50.944;6.950;2023-11-19T03:56:12;100482.13;;;11.74;100.00
49473;BME280;73594;50.944;6.950;2023-11-19T03:58:38;100487.56;;;11.79;100.00
49473;BME280;73594;50.944;6.950;2023-11-19T04:01:13;100486.75;;;11.84;100.00
49473;BME280;73594;50.944;6.950;2023-11-19T04:03:39;100491.63;;;11.82;100.00
49473;BME280;73594;50.944;6.950;2023-11-19T04:06:05;100484.88;;;11.84;100.00
49473;BME280;73594;50.944;6.950;2023-11-19T04:08:31;100479.72;;;11.83;100.00
49473;BME280;73594;50.944;6.950;2023-11-19T04:10:56;100488.38;;;11.85;100.00
49473;BME280;73594;50.944;6.950;2023-11-19T04:13:22;100487.28;;;11.86;100.00
49473;BME280;73594;50.944;6.950;2023-11-19T04:15:50;100483.78;;;11.85;100.00
49473;BME280;73594;50.944;6.950;2023-11-19T04:18:15;100492.44;;;11.82;100.00
49473;BME280;73594;50.944;6.950;2023-11-19T04:20:41;100489.75;;;11.82;100.00
49473;BME280;73594;50.944;6.950;2023-11-19T04:23:08;100488.94;;;11.82;100.00
49473;BME280;73594;50.944;6.950;2023-11-19T04:25:35;100488.66;;;11.88;100.00
49473;BME280;73594;50.944;6.950;2023-11-19T04:28:00;100494.63;;;11.91;100.00
49473;BME280;73594;50.944;6.950;2023-11-19T04:30:26;100495.97;;;11.88;100.00
49473;BME280;73594;50.944;6.950;2023-11-19T04:32:51;100492.72;;;11.86;100.00
49473;BME280;73594;50.944;6.950;2023-11-19T04:35:16;100479.44;;;11.84;100.00
49473;BME280;73594;50.944;6.950;2023-11-19T04:37:42;100486.22;;;11.87;100.00
49473;BME280;73594;50.944;6.950;2023-11-19T04:40:07;100493.28;;;11.93;100.00
49473;BME280;73594;50.944;6.950;2023-11-19T04:42:33;100499.50;;;11.99;100.00
49473;BME280;73594;50.944;6.950;2023-11-19T04:44:58;100491.38;;;11.99;100.00
49473;BME280;73594;50.944;6.950;2023-11-19T04:47:24;100513.06;;;11.99;100.00
49473;BME280;73594;50.944;6.950;2023-11-19T04:49:49;100511.13;;;12.09;100.00
49473;BME280;73594;50.944;6.950;2023-11-19T04:52:14;100513.84;;;12.14;100.00
49473;BME280;73594;50.944;6.950;2023-11-19T04:54:43;100507.06;;;12.17;100.00
49473;BME280;73594;50.944;6.950;2023-11-19T04:57:09;100518.19;;;12.15;100.00
49473;BME280;73594;50.944;6.950;2023-11-19T04:59:38;100508.16;;;12.16;100.00
49473;BME280;73594;50.944;6.950;2023-11-19T05:02:04;100500.03;;;12.11;100.00
49473;BME280;73594;50.944;6.950;2023-11-19T05:04:30;100498.94;;;12.07;100.00
49473;BME280;73594;50.944;6.950;2023-11-19T05:06:55;100504.91;;;12.04;100.00
49473;BME280;73594;50.944;6.950;2023-11-19T05:09:21;100511.97;;;12.00;100.00
49473;BME280;73594;50.944;6.950;2023-11-19T05:11:46;100518.19;;;12.00;100.00
49473;BME280;73594;50.944;6.950;2023-11-19T05:14:12;100513.88;;;11.94;100.00
49473;BME280;73594;50.944;6.950;2023-11-19T05:16:39;100510.84;;;11.85;100.00
49473;BME280;73594;50.944;6.950;2023-11-19T05:19:05;100516.28;;;11.80;100.00
49473;BME280;73594;50.944;6.950;2023-11-19T05:21:30;100505.41;;;11.75;100.00
49473;BME280;73594;50.944;6.950;2023-11-19T05:23:56;100514.09;;;11.77;100.00
49473;BME280;73594;50.944;6.950;2023-11-19T05:26:23;100515.75;;;11.78;100.00
49473;BME280;73594;50.944;6.950;2023-11-19T05:28:49;100510.84;;;11.70;100.00
49473;BME280;73594;50.944;6.950;2023-11-19T05:31:16;100515.16;;;11.76;100.00
49473;BME280;73594;50.944;6.950;2023-11-19T05:33:42;100506.22;;;11.76;100.00
49473;BME280;73594;50.944;6.950;2023-11-19T05:36:07;100505.41;;;11.70;100.00
49473;BME280;73594;50.944;6.950;2023-11-19T05:38:36;100505.97;;;11.62;100.00
49473;BME280;73594;50.944;6.950;2023-11-19T05:41:05;100513.53;;;11.70;100.00
49473;BME280;73594;50.944;6.950;2023-11-19T05:43:31;100511.91;;;11.69;100.00
49473;BME280;73594;50.944;6.950;2023-11-19T05:45:56;100506.78;;;11.63;100.00
49473;BME280;73594;50.944;6.950;2023-11-19T05:48:22;100511.38;;;11.67;100.00
49473;BME280;73594;50.944;6.950;2023-11-19T05:50:47;100515.69;;;11.63;100.00
49473;BME280;73594;50.944;6.950;2023-11-19T05:53:15;100524.38;;;11.60;100.00
49473;BME280;73594;50.944;6.950;2023-11-19T05:55:40;100515.72;;;11.73;100.00
49473;BME280;73594;50.944;6.950;2023-11-19T05:58:14;100523.56;;;11.75;98.85
49473;BME280;73594;50.944;6.950;2023-11-19T06:00:40;100512.72;;;11.70;99.96
49473;BME280;73594;50.944;6.950;2023-11-19T06:03:05;100529.50;;;11.67;99.46
49473;BME280;73594;50.944;6.950;2023-11-19T06:05:31;100534.94;;;11.62;100.00
49473;BME280;73594;50.944;6.950;2023-11-19T06:07:56;100528.44;;;11.68;99.35
49473;BME280;73594;50.944;6.950;2023-11-19T06:10:22;100514.34;;;11.55;100.00
49473;BME280;73594;50.944;6.950;2023-11-19T06:12:54;100519.22;;;11.58;99.97
49473;BME280;73594;50.944;6.950;2023-11-19T06:15:21;100537.34;;;11.53;100.00
49473;BME280;73594;50.944;6.950;2023-11-19T06:17:46;100539.78;;;11.54;99.95
49473;BME280;73594;50.944;6.950;2023-11-19T06:20:12;100544.94;;;11.56;100.00
49473;BME280;73594;50.944;6.950;2023-11-19T06:22:37;100546.84;;;11.55;99.41
49473;BME280;73594;50.944;6.950;2023-11-19T06:25:02;100546.03;;;11.55;99.08
49473;BME280;73594;50.944;6.950;2023-11-19T06:27:32;100566.03;;;11.54;99.81
49473;BME280;73594;50.944;6.950;2023-11-19T06:29:57;100557.13;;;11.53;99.59
49473;BME280;73594;50.944;6.950;2023-11-19T06:32:24;100563.84;;;11.51;99.87
49473;BME280;73594;50.944;6.950;2023-11-19T06:34:49;100551.66;;;11.48;100.00
49473;BME280;73594;50.944;6.950;2023-11-19T06:37:14;100557.41;;;11.67;98.22
49473;BME280;73594;50.944;6.950;2023-11-19T06:39:40;100548.19;;;11.58;99.31
49473;BME280;73594;50.944;6.950;2023-11-19T06:42:06;100544.94;;;11.56;99.63
49473;BME280;73594;50.944;6.950;2023-11-19T06:44:31;100526.81;;;11.56;98.86
49473;BME280;73594;50.944;6.950;2023-11-19T06:46:56;100544.66;;;11.52;99.29
49473;BME280;73594;50.944;6.950;2023-11-19T06:49:23;100549.22;;;11.52;99.72
49473;BME280;73594;50.944;6.950;2023-11-19T06:51:49;100549.22;;;11.42;99.75
49473;BME280;73594;50.944;6.950;2023-11-19T06:54:15;100552.47;;;11.39;99.89
49473;BME280;73594;50.944;6.950;2023-11-19T06:56:41;100560.03;;;11.42;98.99
49473;BME280;73594;50.944;6.950;2023-11-19T06:59:07;100552.50;;;11.54;97.15
49473;BME280;73594;50.944;6.950;2023-11-19T07:01:36;100553.81;;;11.46;97.54
49473;BME280;73594;50.944;6.950;2023-11-19T07:04:02;100557.06;;;11.43;97.75
49473;BME280;73594;50.944;6.950;2023-11-19T07:06:34;100561.69;;;11.48;97.22
49473;BME280;73594;50.944;6.950;2023-11-19T07:08:59;100560.91;;;11.52;96.47
49473;BME280;73594;50.944;6.950;2023-11-19T07:11:25;100559.50;;;11.40;98.65
49473;BME280;73594;50.944;6.950;2023-11-19T07:13:50;100551.91;;;11.37;98.08
49473;BME280;73594;50.944;6.950;2023-11-19T07:16:16;100556.25;;;11.38;97.72
49473;BME280;73594;50.944;6.950;2023-11-19T07:18:41;100552.44;;;11.34;97.92
49473;BME280;73594;50.944;6.950;2023-11-19T07:21:09;100549.19;;;11.32;98.38
49473;BME280;73594;50.944;6.950;2023-11-19T07:23:36;100547.84;;;11.29;98.42
49473;BME280;73594;50.944;6.950;2023-11-19T07:26:04;100547.81;;;11.24;99.09
49473;BME280;73594;50.944;6.950;2023-11-19T07:28:30;100551.31;;;11.19;99.28
49473;BME280;73594;50.944;6.950;2023-11-19T07:30:55;100549.44;;;11.20;99.08
49473;BME280;73594;50.944;6.950;2023-11-19T07:33:24;100552.41;;;11.23;98.84
49473;BME280;73594;50.944;6.950;2023-11-19T07:35:50;100568.13;;;11.32;97.57
49473;BME280;73594;50.944;6.950;2023-11-19T07:38:16;100577.09;;;11.37;96.77
49473;BME280;73594;50.944;6.950;2023-11-19T07:40:41;100580.31;;;11.34;97.05
49473;BME280;73594;50.944;6.950;2023-11-19T07:43:06;100589.78;;;11.37;96.94
49473;BME280;73594;50.944;6.950;2023-11-19T07:45:32;100591.94;;;11.30;97.00
49473;BME280;73594;50.944;6.950;2023-11-19T07:47:58;100590.88;;;11.31;97.08
49473;BME280;73594;50.944;6.950;2023-11-19T07:50:23;100589.25;;;11.30;97.14
49473;BME280;73594;50.944;6.950;2023-11-19T07:52:50;100589.25;;;11.30;96.98
49473;BME280;73594;50.944;6.950;2023-11-19T07:55:15;100593.59;;;11.36;95.97
49473;BME280;73594;50.944;6.950;2023-11-19T07:57:41;100598.44;;;11.34;96.25
49473;BME280;73594;50.944;6.950;2023-11-19T08:00:06;100606.03;;;11.37;95.82
49473;BME280;73594;50.944;6.950;2023-11-19T08:02:32;100612.25;;;11.37;95.72
49473;BME280;73594;50.944;6.950;2023-11-19T08:04:58;100600.88;;;11.35;95.87
49473;BME280;73594;50.944;6.950;2023-11-19T08:07:23;100593.56;;;11.31;96.09
49473;BME280;73594;50.944;6.950;2023-11-19T08:09:48;100600.59;;;11.26;96.21
49473;BME280;73594;50.944;6.950;2023-11-19T08:12:14;100590.31;;;11.23;96.31
49473;BME280;73594;50.944;6.950;2023-11-19T08:14:41;100589.75;;;11.21;96.85
49473;BME280;73594;50.944;6.950;2023-11-19T08:17:06;100594.34;;;11.21;97.48
49473;BME280;73594;50.944;6.950;2023-11-19T08:19:31;100619.53;;;11.26;96.75
49473;BME280;73594;50.944;6.950;2023-11-19T08:21:57;100618.44;;;11.27;97.17
49473;BME280;73594;50.944;6.950;2023-11-19T08:24:26;100624.69;;;11.28;97.13
49473;BME280;73594;50.944;6.950;2023-11-19T08:26:53;100633.09;;;11.37;96.60
49473;BME280;73594;50.944;6.950;2023-11-19T08:29:24;100635.00;;;11.41;96.12
49473;BME280;73594;50.944;6.950;2023-11-19T08:31:50;100645.31;;;11.49;95.82
49473;BME280;73594;50.944;6.950;2023-11-19T08:34:17;100640.44;;;11.51;95.73
49473;BME280;73594;50.944;6.950;2023-11-19T08:36:47;100658.03;;;11.49;95.58
49473;BME280;73594;50.944;6.950;2023-11-19T08:39:16;100637.53;;;11.58;94.52
49473;BME280;73594;50.944;6.950;2023-11-19T08:41:42;100671.91;;;11.57;95.28
49473;BME280;73594;50.944;6.950;2023-11-19T08:44:08;100634.00;;;11.57;93.24
49473;BME280;73594;50.944;6.950;2023-11-19T08:46:33;100636.16;;;11.55;94.08
49473;BME280;73594;50.944;6.950;2023-11-19T08:49:00;100644.03;;;11.57;93.22
49473;BME280;73594;50.944;6.950;2023-11-19T08:51:26;100651.09;;;11.68;92.69
49473;BME280;73594;50.944;6.950;2023-11-19T08:53:53;100646.22;;;11.70;92.29
49473;BME280;73594;50.944;6.950;2023-11-19T08:56:18;100651.09;;;11.73;91.73
49473;BME280;73594;50.944;6.950;2023-11-19T08:58:44;100651.66;;;11.75;92.45
49473;BME280;73594;50.944;6.950;2023-11-19T09:01:09;100638.38;;;11.74;92.28
49473;BME280;73594;50.944;6.950;2023-11-19T09:03:36;100657.66;;;11.82;91.20
49473;BME280;73594;50.944;6.950;2023-11-19T09:06:02;100650.06;;;11.84;91.15
49473;BME280;73594;50.944;6.950;2023-11-19T09:08:29;100667.72;;;11.92;90.72
49473;BME280;73594;50.944;6.950;2023-11-19T09:10:54;100667.47;;;11.99;88.90
49473;BME280;73594;50.944;6.950;2023-11-19T09:13:20;100673.97;;;12.08;88.44
49473;BME280;73594;50.944;6.950;2023-11-19T09:15:45;100668.56;;;12.08;88.56
49473;BME280;73594;50.944;6.950;2023-11-19T09:18:12;100668.28;;;12.14;88.48
49473;BME280;73594;50.944;6.950;2023-11-19T09:20:37;100668.28;;;12.19;86.83
49473;BME280;73594;50.944;6.950;2023-11-19T09:23:05;100661.53;;;12.22;86.23
49473;BME280;73594;50.944;6.950;2023-11-19T09:25:31;100665.31;;;12.26;85.96
49473;BME280;73594;50.944;6.950;2023-11-19T09:27:56;100659.94;;;12.31;87.32
49473;BME280;73594;50.944;6.950;2023-11-19T09:30:21;100663.44;;;12.37;86.77
49473;BME280;73594;50.944;6.950;2023-11-19T09:32:48;100664.25;;;12.47;85.22
49473;BME280;73594;50.944;6.950;2023-11-19T09:35:13;100653.41;;;12.42;86.29
49473;BME280;73594;50.944;6.950;2023-11-19T09:37:43;100660.75;;;12.37;85.34
49473;BME280;73594;50.944;6.950;2023-11-19T09:40:08;100657.22;;;12.36;86.36
49473;BME280;73594;50.944;6.950;2023-11-19T09:42:43;100660.47;;;12.43;85.14
49473;BME280;73594;50.944;6.950;2023-11-19T09:45:16;100656.94;;;12.53;85.55
49473;BME280;73594;50.944;6.950;2023-11-19T09:47:45;100663.97;;;12.59;84.67
49473;BME280;73594;50.944;6.950;2023-11-19T09:50:19;100664.25;;;12.63;85.07
49473;BME280;73594;50.944;6.950;2023-11-19T09:52:45;100663.44;;;12.72;83.03
49473;BME280;73594;50.944;6.950;2023-11-19T09:55:11;100663.44;;;12.72;83.22
49473;BME280;73594;50.944;6.950;2023-11-19T09:57:38;100666.44;;;12.76;83.89
49473;BME280;73594;50.944;6.950;2023-11-19T10:00:06;100661.00;;;12.76;83.30
49473;BME280;73594;50.944;6.950;2023-11-19T10:02:33;100674.03;;;12.79;81.88
49473;BME280;73594;50.944;6.950;2023-11-19T10:05:04;100662.63;;;12.77;82.36
49473;BME280;73594;50.944;6.950;2023-11-19T10:07:31;100656.13;;;12.78;81.56
49473;BME280;73594;50.944;6.950;2023-11-19T10:10:07;100652.59;;;12.77;82.94
49473;BME280;73594;50.944;6.950;2023-11-19T10:12:32;100646.09;;;12.78;82.25
49473;BME280;73594;50.944;6.950;2023-11-19T10:14:59;100661.00;;;12.81;82.36
49473;BME280;73594;50.944;6.950;2023-11-19T10:17:34;100642.53;;;12.88;81.60
49473;BME280;73594;50.944;6.950;2023-11-19T10:20:00;100638.19;;;12.92;81.04
49473;BME280;73594;50.944;6.950;2023-11-19T10:22:27;100645.22;;;13.03;81.18
49473;BME280;73594;50.944;6.950;2023-11-19T10:24:53;100649.56;;;13.04;81.80
49473;BME280;73594;50.944;6.950;2023-11-19T10:27:18;100651.19;;;13.10;80.67
49473;BME280;73594;50.944;6.950;2023-11-19T10:29:48;100648.47;;;13.21;81.74
49473;BME280;73594;50.944;6.950;2023-11-19T10:32:14;100644.66;;;13.17;81.26
49473;BME280;73594;50.944;6.950;2023-11-19T10:34:42;100634.34;;;13.13;81.38
49473;BME280;73594;50.944;6.950;2023-11-19T10:37:08;100649.00;;;13.18;80.46
49473;BME280;73594;50.944;6.950;2023-11-19T10:39:53;100646.56;;;13.21;79.63
49473;BME280;73594;50.944;6.950;2023-11-19T10:42:22;100639.47;;;13.25;79.43
49473;BME280;73594;50.944;6.950;2023-11-19T10:44:48;100650.03;;;13.32;78.79
49473;BME280;73594;50.944;6.950;2023-11-19T10:48:19;100635.41;;;13.28;77.96
49473;BME280;73594;50.944;6.950;2023-11-19T10:50:49;100645.16;;;13.29;79.77
49473;BME280;73594;50.944;6.950;2023-11-19T10:53:20;100638.66;;;13.30;77.92
49473;BME280;73594;50.944;6.950;2023-11-19T10:55:47;100631.03;;;13.32;77.56
49473;BME280;73594;50.944;6.950;2023-11-19T10:58:15;100641.34;;;13.35;77.19
49473;BME280;73594;50.944;6.950;2023-11-19T11:00:45;100636.19;;;13.33;76.66
49473;BME280;73594;50.944;6.950;2023-11-19T11:03:24;100618.00;;;13.39;76.07
49473;BME280;73594;50.944;6.950;2023-11-19T11:05:52;100631.00;;;13.37;75.82
49473;BME280;73594;50.944;6.950;2023-11-19T11:08:19;100632.13;;;13.31;76.35
49473;BME280;73594;50.944;6.950;2023-11-19T11:11:03;100629.44;;;13.26;76.21
49473;BME280;73594;50.944;6.950;2023-11-19T11:13:31;100625.91;;;13.15;76.51
49473;BME280;73594;50.944;6.950;2023-11-19T11:15:57;100640.59;;;13.09;78.01
49473;BME280;73594;50.944;6.950;2023-11-19T11:18:23;100650.91;;;13.07;79.11
49473;BME280;73594;50.944;6.950;2023-11-19T11:20:52;100635.72;;;13.06;80.04
49473;BME280;73594;50.944;6.950;2023-11-19T11:23:33;100629.75;;;12.99;80.73
49473;BME280;73594;50.944;6.950;2023-11-19T11:29:25;100634.38;;;12.98;79.09
49473;BME280;73594;50.944;6.950;2023-11-19T11:32:36;100617.28;;;13.03;80.27
49473;BME280;73594;50.944;6.950;2023-11-19T11:37:46;100633.00;;;13.11;77.91
49473;BME280;73594;50.944;6.950;2023-11-19T11:40:17;100616.69;;;13.16;77.13
49473;BME280;73594;50.944;6.950;2023-11-19T11:42:44;100618.59;;;13.15;74.50
49473;BME280;73594;50.944;6.950;2023-11-19T11:45:11;100606.66;;;13.11;74.67
49473;BME280;73594;50.944;6.950;2023-11-19T11:50:14;100594.75;;;13.02;75.89
49473;BME280;73594;50.944;6.950;2023-11-19T11:55:51;100574.66;;;12.98;77.97
49473;BME280;73594;50.944;6.950;2023-11-19T11:58:27;100592.88;;;12.93;77.49
49473;BME280;73594;50.944;6.950;2023-11-19T12:00:59;100601.28;;;13.01;76.16
49473;BME280;73594;50.944;6.950;2023-11-19T12:03:27;100589.84;;;13.20;77.96
49473;BME280;73594;50.944;6.950;2023-11-19T12:05:53;100605.22;;;13.34;76.26
49473;BME280;73594;50.944;6.950;2023-11-19T12:08:20;100588.63;;;13.46;76.13
49473;BME280;73594;50.944;6.950;2023-11-19T12:10:51;100597.25;;;13.58;77.50
49473;BME280;73594;50.944;6.950;2023-11-19T12:13:20;100598.88;;;13.59;74.69
49473;BME280;73594;50.944;6.950;2023-11-19T12:16:09;100594.56;;;13.53;75.45
49473;BME280;73594;50.944;6.950;2023-11-19T12:18:38;100584.78;;;13.57;75.88
49473;BME280;73594;50.944;6.950;2023-11-19T12:21:04;100576.03;;;13.65;75.14
49473;BME280;73594;50.944;6.950;2023-11-19T12:23:31;100578.19;;;13.68;74.27
49473;BME280;73594;50.944;6.950;2023-11-19T12:25:58;100577.59;;;13.76;75.59
49473;BME280;73594;50.944;6.950;2023-11-19T12:28:23;100569.50;;;13.66;75.41
49473;BME280;73594;50.944;6.950;2023-11-19T12:30:51;100579.22;;;13.72;76.37
49473;BME280;73594;50.944;6.950;2023-11-19T12:33:21;100582.75;;;13.78;75.38
49473;BME280;73594;50.944;6.950;2023-11-19T12:35:47;100559.69;;;13.70;74.75
49473;BME280;73594;50.944;6.950;2023-11-19T12:38:19;100570.50;;;13.81;74.71
49473;BME280;73594;50.944;6.950;2023-11-19T12:43:29;100567.28;;;13.73;74.36
49473;BME280;73594;50.944;6.950;2023-11-19T12:45:55;100560.53;;;13.66;75.32
49473;BME280;73594;50.944;6.950;2023-11-19T12:48:20;100564.59;;;13.68;75.49
49473;BME280;73594;50.944;6.950;2023-11-19T12:53:19;100562.25;;;13.52;75.56
49473;BME280;73594;50.944;6.950;2023-11-19T12:55:44;100551.44;;;13.47;75.93
49473;BME280;73594;50.944;6.950;2023-11-19T12:58:10;100554.44;;;13.45;76.83
49473;BME280;73594;50.944;6.950;2023-11-19T13:00:35;100557.19;;;13.35;76.42
49473;BME280;73594;50.944;6.950;2023-11-19T13:03:00;100559.91;;;13.35;77.26